createdAt,value
2018-12-21T00:00:10.383Z,8.34
2018-12-21T00:01:10.419Z,8.28
2018-12-21T00:02:10.411Z,8.34
2018-12-21T00:03:10.430Z,8.34
2018-12-21T00:04:10.428Z,8.28
2018-12-21T00:05:10.450Z,8.28
2018-12-21T00:06:10.454Z,8.19
2018-12-21T00:07:10.475Z,8.29
2018-12-21T00:08:10.493Z,8.30
2018-12-21T00:09:10.486Z,8.23
2018-12-21T00:10:10.510Z,8.29
2018-12-21T00:11:10.512Z,8.26
2018-12-21T00:12:10.523Z,8.29
2018-12-21T00:13:10.550Z,8.30
2018-12-21T00:14:10.756Z,8.30
2018-12-21T00:15:10.639Z,8.22
2018-12-21T00:16:10.595Z,8.22
2018-12-21T00:17:10.616Z,8.22
2018-12-21T00:18:10.595Z,8.20
2018-12-21T00:19:10.608Z,8.20
2018-12-21T00:20:10.613Z,8.29
2018-12-21T00:21:10.645Z,8.19
2018-12-21T00:22:10.642Z,8.23
2018-12-21T00:23:10.660Z,8.19
2018-12-21T00:24:10.664Z,8.28
2018-12-21T00:25:10.676Z,8.20
2018-12-21T00:26:10.691Z,8.26
2018-12-21T00:27:10.696Z,8.34
2018-12-21T00:28:10.713Z,8.34
2018-12-21T00:29:10.774Z,8.30
2018-12-21T00:30:10.838Z,8.28
2018-12-21T00:31:10.768Z,8.33
2018-12-21T00:32:10.760Z,8.30
2018-12-21T00:33:10.769Z,8.26
2018-12-21T00:34:10.797Z,8.29
2018-12-21T00:35:10.789Z,8.26
2018-12-21T00:36:10.796Z,8.37
2018-12-21T00:37:10.807Z,8.34
2018-12-21T00:38:10.819Z,8.28
2018-12-21T00:39:10.833Z,8.26
2018-12-21T00:40:10.940Z,8.29
2018-12-21T00:41:10.851Z,8.29
2018-12-21T00:42:10.870Z,8.37
2018-12-21T00:43:10.877Z,8.36
2018-12-21T00:44:10.890Z,8.34
2018-12-21T00:45:10.899Z,8.37
2018-12-21T00:46:10.946Z,8.30
2018-12-21T00:47:10.924Z,8.37
2018-12-21T00:48:10.937Z,8.36
2018-12-21T00:49:10.968Z,8.40
2018-12-21T00:50:10.955Z,8.40
2018-12-21T00:51:10.970Z,8.41
2018-12-21T00:52:10.988Z,8.44
2018-12-21T00:53:10.997Z,8.45
2018-12-21T00:54:11.004Z,8.47
2018-12-21T00:55:11.017Z,8.37
2018-12-21T00:56:11.026Z,8.45
2018-12-21T00:57:11.041Z,8.37
2018-12-21T00:58:11.057Z,8.38
2018-12-21T00:59:11.063Z,8.47
2018-12-21T01:00:11.078Z,8.43
2018-12-21T01:01:11.084Z,8.40
2018-12-21T01:02:11.098Z,8.38
2018-12-21T01:03:11.110Z,8.43
2018-12-21T01:04:11.127Z,8.37
2018-12-21T01:05:11.132Z,8.40
2018-12-21T01:06:11.143Z,8.50
2018-12-21T01:07:11.157Z,8.45
2018-12-21T01:08:11.165Z,8.40
2018-12-21T01:09:11.179Z,8.40
2018-12-21T01:10:11.214Z,8.45
2018-12-21T01:11:11.204Z,8.37
2018-12-21T01:12:11.217Z,8.37
2018-12-21T01:13:12.005Z,8.37
2018-12-21T01:14:11.238Z,8.41
2018-12-21T01:15:11.251Z,8.43
2018-12-21T01:16:11.276Z,8.41
2018-12-21T01:17:11.326Z,8.37
2018-12-21T01:18:11.290Z,8.38
2018-12-21T01:19:11.297Z,8.48
2018-12-21T01:20:11.307Z,8.48
2018-12-21T01:21:11.341Z,8.44
2018-12-21T01:22:11.337Z,8.50
2018-12-21T01:23:11.344Z,8.48
2018-12-21T01:24:11.352Z,8.52
2018-12-21T01:25:11.369Z,8.52
2018-12-21T01:26:11.381Z,8.52
2018-12-21T01:27:11.397Z,8.50
2018-12-21T01:28:11.403Z,8.48
2018-12-21T01:29:11.420Z,8.53
2018-12-21T01:30:11.423Z,8.56
2018-12-21T01:31:11.446Z,8.55
2018-12-21T01:32:11.450Z,8.47
2018-12-21T01:33:11.462Z,8.55
2018-12-21T01:34:11.482Z,8.47
2018-12-21T01:35:11.506Z,8.48
2018-12-21T01:36:11.497Z,8.59
2018-12-21T01:37:11.510Z,8.61
2018-12-21T01:38:11.520Z,8.62
2018-12-21T01:39:11.646Z,8.48
2018-12-21T01:40:11.540Z,8.59
2018-12-21T01:41:11.564Z,8.50
2018-12-21T01:42:11.565Z,8.55
2018-12-21T01:43:11.578Z,8.59
2018-12-21T01:44:12.384Z,8.50
2018-12-21T01:45:11.803Z,8.59
2018-12-21T01:47:11.651Z,8.55
2018-12-21T01:48:11.638Z,8.52
2018-12-21T01:49:11.648Z,8.56
2018-12-21T01:50:11.661Z,8.55
2018-12-21T01:51:11.673Z,8.50
2018-12-21T01:52:11.685Z,8.56
2018-12-21T01:53:11.693Z,8.45
2018-12-21T01:54:11.717Z,8.50
2018-12-21T01:55:11.740Z,8.45
2018-12-21T01:56:11.732Z,8.50
2018-12-21T01:57:11.741Z,8.47
2018-12-21T01:58:11.753Z,8.50
2018-12-21T01:59:11.769Z,8.48
2018-12-21T02:00:11.774Z,8.50
2018-12-21T02:01:11.786Z,8.47
2018-12-21T02:02:11.968Z,8.52
2018-12-21T02:03:11.815Z,8.50
2018-12-21T02:04:11.826Z,8.48
2018-12-21T02:05:11.843Z,8.48
2018-12-21T02:06:11.850Z,8.50
2018-12-21T02:07:11.856Z,8.50
2018-12-21T02:08:11.868Z,8.50
2018-12-21T02:09:11.883Z,8.43
2018-12-21T02:10:11.893Z,8.50
2018-12-21T02:11:11.904Z,8.55
2018-12-21T02:12:11.918Z,8.47
2018-12-21T02:13:11.929Z,8.58
2018-12-21T02:14:11.943Z,8.50
2018-12-21T02:15:11.950Z,8.53
2018-12-21T02:16:11.965Z,8.50
2018-12-21T02:17:11.978Z,8.50
2018-12-21T02:18:11.987Z,8.53
2018-12-21T02:19:11.999Z,8.56
2018-12-21T02:20:12.007Z,8.59
2018-12-21T02:21:12.027Z,8.55
2018-12-21T02:22:12.048Z,8.56
2018-12-21T02:23:12.052Z,8.53
2018-12-21T02:24:12.054Z,8.59
2018-12-21T02:25:12.664Z,8.55
2018-12-21T02:26:12.262Z,8.56
2018-12-21T02:27:12.105Z,8.53
2018-12-21T02:28:12.103Z,8.58
2018-12-21T02:29:12.599Z,8.48
2018-12-21T02:30:12.150Z,8.61
2018-12-21T02:31:12.143Z,8.61
2018-12-21T02:32:12.154Z,8.55
2018-12-21T02:33:12.159Z,8.59
2018-12-21T02:34:12.178Z,8.61
2018-12-21T02:35:12.196Z,8.61
2018-12-21T02:36:12.196Z,8.59
2018-12-21T02:37:12.207Z,8.55
2018-12-21T02:38:12.219Z,8.55
2018-12-21T02:39:12.232Z,8.66
2018-12-21T02:40:12.246Z,8.68
2018-12-21T02:41:12.255Z,8.55
2018-12-21T02:42:12.263Z,8.59
2018-12-21T02:43:12.282Z,8.62
2018-12-21T02:44:12.290Z,8.59
2018-12-21T02:45:12.297Z,8.65
2018-12-21T02:46:12.323Z,8.55
2018-12-21T02:47:12.328Z,8.63
2018-12-21T02:48:12.336Z,8.62
2018-12-21T02:49:12.354Z,8.66
2018-12-21T02:50:12.360Z,8.68
2018-12-21T02:51:12.372Z,8.65
2018-12-21T02:52:12.381Z,8.58
2018-12-21T02:53:12.393Z,8.71
2018-12-21T02:54:12.465Z,8.70
2018-12-21T02:55:12.417Z,8.73
2018-12-21T02:56:12.436Z,8.63
2018-12-21T02:57:12.453Z,8.74
2018-12-21T02:58:12.456Z,8.70
2018-12-21T02:59:12.464Z,8.71
2018-12-21T03:00:12.475Z,8.73
2018-12-21T03:01:12.488Z,8.70
2018-12-21T03:02:12.499Z,8.70
2018-12-21T03:03:12.511Z,8.63
2018-12-21T03:04:12.522Z,8.63
2018-12-21T03:05:12.538Z,8.68
2018-12-21T03:06:12.547Z,8.62
2018-12-21T03:07:12.557Z,8.68
2018-12-21T03:08:12.574Z,8.70
2018-12-21T03:09:12.580Z,8.74
2018-12-21T03:10:12.597Z,8.63
2018-12-21T03:11:12.605Z,8.62
2018-12-21T03:12:12.616Z,8.68
2018-12-21T03:13:12.627Z,8.65
2018-12-21T03:14:12.638Z,8.74
2018-12-21T03:15:12.651Z,8.73
2018-12-21T03:16:12.662Z,8.74
2018-12-21T03:17:12.679Z,8.73
2018-12-21T03:18:12.688Z,8.77
2018-12-21T03:19:12.703Z,8.83
2018-12-21T03:20:12.710Z,8.77
2018-12-21T03:21:12.726Z,8.73
2018-12-21T03:22:14.887Z,8.81
2018-12-21T03:23:12.753Z,8.80
2018-12-21T03:24:12.759Z,8.74
2018-12-21T03:25:12.768Z,8.87
2018-12-21T03:26:12.780Z,8.83
2018-12-21T03:27:12.813Z,8.84
2018-12-21T03:28:12.801Z,8.84
2018-12-21T03:29:12.813Z,8.79
2018-12-21T03:30:12.833Z,8.77
2018-12-21T03:31:13.007Z,8.81
2018-12-21T03:32:12.851Z,8.79
2018-12-21T03:33:12.880Z,8.79
2018-12-21T03:34:12.877Z,8.81
2018-12-21T03:35:12.953Z,8.77
2018-12-21T03:36:12.904Z,8.81
2018-12-21T03:37:12.915Z,8.77
2018-12-21T03:38:12.923Z,8.81
2018-12-21T03:39:12.936Z,8.83
2018-12-21T03:40:12.945Z,8.80
2018-12-21T03:41:12.960Z,8.84
2018-12-21T03:42:12.969Z,8.79
2018-12-21T03:43:12.978Z,8.73
2018-12-21T03:44:12.991Z,8.77
2018-12-21T03:45:13.001Z,8.81
2018-12-21T03:46:13.015Z,8.65
2018-12-21T03:47:13.028Z,8.68
2018-12-21T03:48:13.041Z,8.74
2018-12-21T03:49:13.056Z,8.83
2018-12-21T03:50:13.064Z,8.73
2018-12-21T03:51:13.081Z,8.73
2018-12-21T03:52:13.092Z,8.79
2018-12-21T03:53:13.100Z,8.62
2018-12-21T03:54:13.109Z,8.79
2018-12-21T03:55:13.245Z,8.73
2018-12-21T03:56:13.136Z,8.65
2018-12-21T03:57:13.141Z,8.68
2018-12-21T03:58:13.159Z,8.66
2018-12-21T03:59:13.169Z,8.74
2018-12-21T04:00:13.180Z,8.65
2018-12-21T04:01:13.192Z,8.77
2018-12-21T04:02:13.224Z,8.61
2018-12-21T04:03:13.225Z,8.68
2018-12-21T04:04:13.226Z,8.73
2018-12-21T04:05:13.234Z,8.79
2018-12-21T04:06:13.251Z,8.68
2018-12-21T04:07:13.258Z,8.68
2018-12-21T04:08:13.269Z,8.71
2018-12-21T04:09:13.286Z,8.62
2018-12-21T04:10:13.300Z,8.68
2018-12-21T04:11:13.307Z,8.58
2018-12-21T04:12:13.319Z,8.74
2018-12-21T04:13:13.328Z,8.63
2018-12-21T04:14:13.343Z,8.70
2018-12-21T04:15:13.403Z,8.68
2018-12-21T04:17:13.478Z,8.77
2018-12-21T04:18:13.409Z,8.73
2018-12-21T04:19:13.411Z,8.66
2018-12-21T04:20:13.410Z,8.68
2018-12-21T04:21:13.426Z,8.59
2018-12-21T04:22:13.437Z,8.65
2018-12-21T04:23:13.446Z,8.77
2018-12-21T04:24:13.458Z,8.62
2018-12-21T04:25:13.470Z,8.77
2018-12-21T04:26:13.492Z,8.73
2018-12-21T04:27:13.497Z,8.76
2018-12-21T04:28:13.505Z,8.81
2018-12-21T04:29:13.525Z,8.73
2018-12-21T04:30:13.529Z,8.62
2018-12-21T04:31:13.538Z,8.63
2018-12-21T04:32:13.550Z,8.70
2018-12-21T04:33:13.617Z,8.68
2018-12-21T04:35:14.154Z,8.65
2018-12-21T04:36:13.615Z,8.73
2018-12-21T04:37:13.611Z,8.74
2018-12-21T04:38:13.622Z,8.73
2018-12-21T04:39:13.634Z,8.84
2018-12-21T04:40:13.644Z,8.84
2018-12-21T04:41:13.666Z,8.86
2018-12-21T04:42:13.666Z,8.77
2018-12-21T04:43:13.689Z,8.80
2018-12-21T04:44:13.690Z,8.73
2018-12-21T04:45:13.719Z,8.81
2018-12-21T04:46:13.712Z,8.80
2018-12-21T04:47:13.731Z,8.81
2018-12-21T04:48:13.737Z,8.81
2018-12-21T04:49:13.759Z,8.84
2018-12-21T04:50:13.783Z,8.80
2018-12-21T04:51:14.234Z,8.83
2018-12-21T04:52:13.796Z,8.83
2018-12-21T04:53:14.003Z,8.79
2018-12-21T04:54:13.841Z,8.83
2018-12-21T04:55:13.822Z,8.81
2018-12-21T04:56:13.916Z,8.81
2018-12-21T04:57:13.848Z,8.92
2018-12-21T04:58:13.858Z,8.81
2018-12-21T04:59:13.884Z,8.92
2018-12-21T05:00:13.879Z,8.91
2018-12-21T05:01:13.892Z,8.87
2018-12-21T05:02:13.923Z,8.87
2018-12-21T05:03:13.912Z,8.87
2018-12-21T05:04:19.673Z,8.83
2018-12-21T05:05:13.947Z,8.95
2018-12-21T05:06:13.957Z,8.95
2018-12-21T05:07:13.966Z,8.96
2018-12-21T05:08:14.028Z,9.05
2018-12-21T05:09:13.987Z,8.91
2018-12-21T05:10:14.004Z,9.04
2018-12-21T05:11:14.015Z,9.04
2018-12-21T05:12:14.037Z,8.94
2018-12-21T05:13:14.033Z,8.98
2018-12-21T05:14:14.043Z,8.99
2018-12-21T05:15:14.058Z,9.13
2018-12-21T05:16:14.074Z,9.13
2018-12-21T05:17:14.079Z,9.08
2018-12-21T05:18:14.099Z,9.05
2018-12-21T05:19:14.121Z,9.02
2018-12-21T05:20:14.111Z,9.04
2018-12-21T05:21:14.126Z,9.11
2018-12-21T05:22:14.140Z,9.14
2018-12-21T05:23:14.151Z,9.02
2018-12-21T05:24:14.166Z,8.99
2018-12-21T05:25:14.171Z,9.14
2018-12-21T05:26:14.186Z,9.10
2018-12-21T05:27:14.197Z,9.15
2018-12-21T05:28:14.214Z,9.18
2018-12-21T05:29:14.218Z,9.24
2018-12-21T05:30:14.237Z,9.15
2018-12-21T05:31:14.439Z,9.15
2018-12-21T05:32:14.256Z,9.11
2018-12-21T05:33:14.273Z,9.23
2018-12-21T05:34:14.283Z,9.20
2018-12-21T05:35:14.301Z,9.11
2018-12-21T05:36:14.307Z,9.13
2018-12-21T05:37:14.311Z,9.15
2018-12-21T05:38:14.332Z,9.10
2018-12-21T05:39:14.345Z,9.18
2018-12-21T05:40:14.380Z,9.18
2018-12-21T05:41:14.367Z,9.10
2018-12-21T05:42:14.374Z,9.24
2018-12-21T05:43:14.389Z,9.20
2018-12-21T05:44:14.438Z,9.11
2018-12-21T05:45:14.637Z,9.11
2018-12-21T05:46:14.426Z,9.17
2018-12-21T05:47:14.436Z,9.11
2018-12-21T05:48:14.447Z,9.05
2018-12-21T05:49:14.458Z,9.08
2018-12-21T05:50:14.472Z,9.11
2018-12-21T05:51:14.485Z,8.96
2018-12-21T05:52:14.496Z,8.95
2018-12-21T05:53:14.509Z,9.02
2018-12-21T05:54:14.515Z,8.99
2018-12-21T05:55:14.548Z,8.98
2018-12-21T05:56:14.541Z,8.95
2018-12-21T05:57:14.552Z,8.99
2018-12-21T05:58:14.566Z,8.96
2018-12-21T05:59:14.573Z,9.01
2018-12-21T06:00:14.601Z,8.99
2018-12-21T06:01:14.616Z,8.98
2018-12-21T06:02:14.635Z,8.99
2018-12-21T06:03:14.636Z,9.01
2018-12-21T06:04:14.662Z,8.96
2018-12-21T06:05:14.984Z,8.99
2018-12-21T06:06:14.689Z,9.05
2018-12-21T06:07:14.688Z,8.92
2018-12-21T06:08:14.684Z,8.98
2018-12-21T06:09:14.693Z,8.99
2018-12-21T06:10:14.704Z,9.01
2018-12-21T06:11:14.817Z,9.04
2018-12-21T06:12:14.746Z,9.02
2018-12-21T06:13:14.753Z,9.11
2018-12-21T06:14:14.752Z,9.05
2018-12-21T06:15:14.768Z,9.05
2018-12-21T06:16:14.775Z,9.21
2018-12-21T06:17:14.789Z,9.14
2018-12-21T06:18:14.806Z,9.24
2018-12-21T06:19:14.813Z,9.15
2018-12-21T06:20:14.821Z,9.18
2018-12-21T06:21:15.225Z,9.23
2018-12-21T06:22:14.849Z,9.23
2018-12-21T06:23:14.864Z,9.26
2018-12-21T06:24:14.884Z,9.31
2018-12-21T06:25:14.987Z,9.32
2018-12-21T06:26:14.900Z,9.26
2018-12-21T06:27:14.914Z,9.26
2018-12-21T06:28:14.919Z,9.26
2018-12-21T06:29:14.931Z,9.28
2018-12-21T06:30:14.944Z,9.24
2018-12-21T06:31:14.989Z,9.31
2018-12-21T06:32:14.979Z,9.24
2018-12-21T06:33:14.982Z,9.29
2018-12-21T06:34:15.020Z,9.28
2018-12-21T06:35:15.012Z,9.33
2018-12-21T06:36:15.017Z,9.29
2018-12-21T06:37:15.041Z,9.29
2018-12-21T06:38:15.037Z,9.35
2018-12-21T06:39:15.060Z,9.28
2018-12-21T06:40:15.088Z,9.24
2018-12-21T06:41:15.091Z,9.29
2018-12-21T06:42:15.091Z,9.23
2018-12-21T06:43:15.101Z,9.28
2018-12-21T06:44:15.110Z,9.20
2018-12-21T06:45:15.127Z,9.23
2018-12-21T06:46:15.137Z,9.20
2018-12-21T06:47:15.152Z,9.28
2018-12-21T06:48:15.154Z,9.17
2018-12-21T06:49:15.197Z,9.10
2018-12-21T06:50:15.180Z,9.20
2018-12-21T06:51:15.210Z,9.20
2018-12-21T06:52:15.267Z,9.11
2018-12-21T06:53:18.026Z,9.20
2018-12-21T06:54:15.251Z,9.15
2018-12-21T06:55:15.245Z,9.20
2018-12-21T06:56:15.303Z,9.24
2018-12-21T06:57:15.271Z,9.13
2018-12-21T06:58:15.277Z,9.24
2018-12-21T06:59:15.293Z,9.18
2018-12-21T07:00:15.318Z,9.21
2018-12-21T07:01:15.310Z,9.18
2018-12-21T07:02:15.328Z,9.11
2018-12-21T07:03:17.172Z,9.24
2018-12-21T07:04:15.370Z,9.18
2018-12-21T07:05:15.361Z,9.13
2018-12-21T07:06:15.371Z,9.10
2018-12-21T07:07:15.411Z,9.11
2018-12-21T07:08:15.392Z,9.11
2018-12-21T07:09:15.406Z,9.10
2018-12-21T07:10:15.415Z,9.08
2018-12-21T07:11:15.442Z,9.05
2018-12-21T07:12:15.438Z,8.99
2018-12-21T07:13:15.473Z,9.10
2018-12-21T07:14:15.459Z,9.11
2018-12-21T07:15:15.471Z,9.04
2018-12-21T07:16:15.493Z,9.04
2018-12-21T07:17:15.502Z,9.04
2018-12-21T07:18:15.540Z,9.10
2018-12-21T07:19:15.525Z,9.02
2018-12-21T07:20:15.542Z,9.05
2018-12-21T07:21:15.544Z,8.99
2018-12-21T07:22:15.559Z,8.96
2018-12-21T07:23:15.574Z,8.96
2018-12-21T07:24:15.591Z,9.02
2018-12-21T07:25:15.626Z,9.02
2018-12-21T07:26:15.610Z,8.99
2018-12-21T07:27:15.617Z,8.99
2018-12-21T07:28:15.626Z,8.91
2018-12-21T07:29:15.640Z,8.91
2018-12-21T07:30:15.655Z,8.91
2018-12-21T07:31:15.804Z,8.98
2018-12-21T07:32:15.675Z,8.89
2018-12-21T07:33:15.688Z,8.96
2018-12-21T07:34:15.705Z,8.99
2018-12-21T07:35:15.712Z,8.96
2018-12-21T07:36:15.817Z,8.94
2018-12-21T07:37:15.751Z,8.94
2018-12-21T07:38:15.787Z,8.92
2018-12-21T07:39:15.759Z,8.79
2018-12-21T07:40:15.780Z,8.92
2018-12-21T07:41:15.785Z,8.80
2018-12-21T07:42:15.819Z,8.81
2018-12-21T07:43:15.805Z,8.86
2018-12-21T07:44:15.813Z,8.83
2018-12-21T07:45:15.831Z,8.86
2018-12-21T07:46:15.858Z,8.87
2018-12-21T07:47:15.860Z,8.80
2018-12-21T07:48:15.876Z,8.83
2018-12-21T07:49:15.907Z,8.80
2018-12-21T07:50:16.011Z,8.92
2018-12-21T07:51:15.906Z,8.80
2018-12-21T07:52:15.912Z,8.86
2018-12-21T07:53:15.918Z,8.83
2018-12-21T07:54:15.936Z,8.83
2018-12-21T07:55:15.946Z,8.84
2018-12-21T07:56:15.953Z,8.87
2018-12-21T07:57:15.964Z,8.89
2018-12-21T07:58:15.984Z,8.94
2018-12-21T07:59:15.992Z,8.94
2018-12-21T08:00:16.005Z,8.87
2018-12-21T08:01:16.009Z,8.84
2018-12-21T08:02:16.036Z,8.89
2018-12-21T08:03:16.144Z,8.89
2018-12-21T08:04:16.048Z,8.92
2018-12-21T08:05:16.067Z,8.92
2018-12-21T08:06:16.099Z,8.91
2018-12-21T08:07:16.095Z,8.94
2018-12-21T08:08:16.094Z,8.91
2018-12-21T08:09:16.157Z,8.96
2018-12-21T08:10:16.119Z,8.94
2018-12-21T08:11:16.145Z,8.80
2018-12-21T08:12:16.146Z,8.91
2018-12-21T08:13:16.177Z,8.81
2018-12-21T08:14:16.186Z,8.89
2018-12-21T08:15:16.188Z,8.86
2018-12-21T08:16:16.185Z,8.83
2018-12-21T08:17:16.200Z,8.86
2018-12-21T08:18:16.228Z,8.95
2018-12-21T08:19:16.220Z,8.87
2018-12-21T08:20:16.235Z,8.98
2018-12-21T08:21:16.448Z,8.95
2018-12-21T08:22:16.256Z,8.99
2018-12-21T08:23:16.273Z,8.95
2018-12-21T08:24:16.278Z,8.86
2018-12-21T08:25:16.303Z,8.96
2018-12-21T08:26:16.305Z,9.01
2018-12-21T08:27:16.318Z,8.99
2018-12-21T08:28:16.320Z,8.95
2018-12-21T08:29:16.330Z,8.94
2018-12-21T08:30:16.346Z,8.84
2018-12-21T08:31:16.360Z,8.92
2018-12-21T08:32:16.366Z,8.95
2018-12-21T08:33:16.379Z,9.02
2018-12-21T08:34:16.396Z,8.95
2018-12-21T08:35:16.403Z,8.92
2018-12-21T08:36:16.412Z,8.98
2018-12-21T08:37:16.430Z,8.98
2018-12-21T08:38:16.439Z,8.99
2018-12-21T08:39:16.451Z,8.95
2018-12-21T08:40:16.462Z,9.11
2018-12-21T08:41:16.480Z,9.04
2018-12-21T08:42:16.518Z,9.10
2018-12-21T08:43:16.499Z,9.10
2018-12-21T08:44:16.526Z,8.99
2018-12-21T08:45:16.523Z,9.05
2018-12-21T08:46:16.535Z,9.15
2018-12-21T08:47:16.548Z,9.13
2018-12-21T08:48:16.554Z,9.26
2018-12-21T08:49:16.573Z,9.21
2018-12-21T08:50:16.583Z,9.28
2018-12-21T08:51:16.608Z,9.26
2018-12-21T08:52:16.609Z,9.32
2018-12-21T08:53:16.619Z,9.28
2018-12-21T08:54:16.630Z,9.40
2018-12-21T08:55:16.643Z,9.39
2018-12-21T08:56:16.650Z,9.47
2018-12-21T08:57:16.875Z,9.46
2018-12-21T08:58:16.738Z,9.43
2018-12-21T08:59:16.696Z,9.46
2018-12-21T09:00:16.701Z,9.43
2018-12-21T09:01:16.712Z,9.40
2018-12-21T09:02:16.730Z,9.39
2018-12-21T09:03:16.758Z,9.51
2018-12-21T09:04:16.747Z,9.50
2018-12-21T09:05:16.760Z,9.47
2018-12-21T09:06:18.552Z,9.54
2018-12-21T09:07:16.797Z,9.60
2018-12-21T09:08:16.812Z,9.61
2018-12-21T09:09:16.815Z,9.53
2018-12-21T09:10:16.820Z,9.61
2018-12-21T09:11:16.831Z,9.66
2018-12-21T09:12:16.866Z,9.53
2018-12-21T09:13:16.877Z,9.50
2018-12-21T09:14:16.877Z,9.54
2018-12-21T09:15:16.882Z,9.54
2018-12-21T09:16:16.897Z,9.57
2018-12-21T09:17:16.905Z,9.60
2018-12-21T09:18:16.926Z,9.60
2018-12-21T09:19:16.928Z,9.58
2018-12-21T09:20:16.937Z,9.56
2018-12-21T09:21:16.958Z,9.56
2018-12-21T09:22:16.964Z,9.57
2018-12-21T09:23:16.974Z,9.57
2018-12-21T09:24:16.988Z,9.56
2018-12-21T09:25:16.998Z,9.56
2018-12-21T09:26:18.020Z,9.66
2018-12-21T09:27:17.025Z,9.56
2018-12-21T09:28:17.041Z,9.71
2018-12-21T09:29:17.047Z,9.54
2018-12-21T09:30:17.061Z,9.64
2018-12-21T09:31:18.447Z,9.66
2018-12-21T09:32:17.084Z,9.68
2018-12-21T09:33:17.095Z,9.56
2018-12-21T09:34:17.105Z,9.68
2018-12-21T09:35:17.126Z,9.60
2018-12-21T09:36:17.130Z,9.72
2018-12-21T09:37:17.146Z,9.72
2018-12-21T09:38:17.166Z,9.66
2018-12-21T09:39:17.167Z,9.66
2018-12-21T09:40:17.190Z,9.71
2018-12-21T09:41:17.230Z,9.71
2018-12-21T09:42:17.205Z,9.64
2018-12-21T09:43:17.738Z,9.69
2018-12-21T09:44:17.249Z,9.66
2018-12-21T09:45:17.238Z,9.66
2018-12-21T09:46:17.252Z,9.75
2018-12-21T09:47:17.262Z,9.71
2018-12-21T09:48:17.274Z,9.68
2018-12-21T09:49:17.290Z,9.72
2018-12-21T09:50:17.313Z,9.75
2018-12-21T09:51:17.319Z,9.78
2018-12-21T09:52:17.326Z,9.69
2018-12-21T09:53:17.355Z,9.66
2018-12-21T09:55:17.373Z,9.71
2018-12-21T09:56:17.454Z,9.75
2018-12-21T09:57:17.385Z,9.78
2018-12-21T09:58:17.398Z,9.78
2018-12-21T09:59:17.409Z,9.74
2018-12-21T10:00:17.423Z,9.79
2018-12-21T10:01:17.440Z,9.74
2018-12-21T10:02:17.443Z,9.72
2018-12-21T10:03:17.465Z,9.84
2018-12-21T10:04:17.467Z,9.76
2018-12-21T10:05:17.481Z,9.78
2018-12-21T10:06:17.499Z,9.83
2018-12-21T10:07:17.502Z,9.81
2018-12-21T10:08:17.517Z,9.79
2018-12-21T10:09:17.527Z,9.81
2018-12-21T10:10:17.539Z,9.78
2018-12-21T10:11:17.552Z,9.76
2018-12-21T10:12:17.583Z,9.84
2018-12-21T10:13:17.585Z,9.81
2018-12-21T10:14:17.594Z,9.78
2018-12-21T10:15:17.600Z,9.83
2018-12-21T10:16:17.625Z,9.76
2018-12-21T10:17:17.632Z,9.76
2018-12-21T10:18:17.651Z,9.78
2018-12-21T10:19:17.649Z,9.81
2018-12-21T10:20:20.019Z,9.78
2018-12-21T10:21:17.677Z,9.83
2018-12-21T10:22:17.689Z,9.89
2018-12-21T10:23:17.704Z,9.89
2018-12-21T10:24:18.643Z,9.81
2018-12-21T10:25:17.728Z,9.79
2018-12-21T10:26:17.738Z,9.76
2018-12-21T10:27:17.759Z,9.76
2018-12-21T10:28:17.761Z,9.89
2018-12-21T10:29:17.823Z,9.89
2018-12-21T10:30:17.785Z,9.90
2018-12-21T10:31:17.795Z,9.78
2018-12-21T10:32:17.826Z,9.79
2018-12-21T10:33:17.822Z,9.90
2018-12-21T10:34:17.832Z,9.89
2018-12-21T10:35:17.855Z,9.94
2018-12-21T10:36:17.855Z,9.94
2018-12-21T10:37:17.867Z,9.90
2018-12-21T10:38:17.885Z,9.86
2018-12-21T10:39:17.894Z,9.86
2018-12-21T10:40:17.913Z,9.93
2018-12-21T10:41:17.922Z,9.97
2018-12-21T10:42:17.939Z,9.84
2018-12-21T10:43:17.942Z,9.89
2018-12-21T10:44:17.968Z,9.89
2018-12-21T10:45:17.967Z,9.90
2018-12-21T10:46:17.979Z,9.94
2018-12-21T10:47:17.988Z,10.01
2018-12-21T10:48:18.021Z,9.94
2018-12-21T10:49:18.052Z,9.90
2018-12-21T10:50:18.051Z,9.91
2018-12-21T10:51:18.038Z,9.99
2018-12-21T10:52:18.061Z,10.08
2018-12-21T10:53:18.062Z,10.08
2018-12-21T10:54:18.077Z,9.97
2018-12-21T10:55:18.202Z,10.07
2018-12-21T10:56:18.129Z,10.08
2018-12-21T10:57:18.112Z,10.05
2018-12-21T10:58:18.124Z,10.08
2018-12-21T10:59:21.173Z,10.07
2018-12-21T11:00:18.149Z,10.15
2018-12-21T11:01:18.159Z,10.11
2018-12-21T11:02:18.173Z,10.11
2018-12-21T11:03:18.186Z,10.18
2018-12-21T11:04:18.221Z,10.15
2018-12-21T11:05:18.213Z,10.17
2018-12-21T11:06:18.219Z,10.25
2018-12-21T11:07:18.237Z,10.26
2018-12-21T11:08:18.251Z,10.34
2018-12-21T11:09:18.383Z,10.29
2018-12-21T11:10:18.275Z,10.36
2018-12-21T11:11:18.299Z,10.33
2018-12-21T11:12:18.293Z,10.38
2018-12-21T11:13:18.311Z,10.34
2018-12-21T11:14:18.325Z,10.33
2018-12-21T11:15:18.336Z,10.29
2018-12-21T11:16:18.342Z,10.32
2018-12-21T11:17:18.387Z,10.23
2018-12-21T11:18:18.366Z,10.34
2018-12-21T11:19:18.433Z,10.36
2018-12-21T11:20:18.496Z,10.40
2018-12-21T11:21:18.404Z,10.41
2018-12-21T11:22:18.414Z,10.36
2018-12-21T11:23:18.422Z,10.40
2018-12-21T11:24:18.436Z,10.41
2018-12-21T11:25:18.498Z,10.38
2018-12-21T11:26:18.463Z,10.44
2018-12-21T11:27:18.481Z,10.45
2018-12-21T11:28:25.336Z,10.44
2018-12-21T11:29:18.506Z,10.48
2018-12-21T11:30:18.511Z,10.47
2018-12-21T11:31:18.522Z,10.45
2018-12-21T11:32:18.534Z,10.45
2018-12-21T11:33:18.547Z,10.47
2018-12-21T11:34:18.555Z,10.59
2018-12-21T11:35:18.574Z,10.60
2018-12-21T11:36:18.584Z,10.63
2018-12-21T11:37:18.592Z,10.61
2018-12-21T11:38:18.604Z,10.67
2018-12-21T11:39:18.620Z,10.66
2018-12-21T11:40:18.632Z,10.64
2018-12-21T11:41:18.644Z,10.68
2018-12-21T11:42:18.660Z,10.73
2018-12-21T11:43:18.670Z,10.76
2018-12-21T11:44:18.679Z,10.70
2018-12-21T11:45:18.691Z,10.78
2018-12-21T11:46:18.708Z,10.81
2018-12-21T11:47:18.719Z,10.76
2018-12-21T11:48:18.728Z,10.76
2018-12-21T11:49:18.747Z,10.89
2018-12-21T11:50:18.753Z,10.84
2018-12-21T11:51:18.772Z,10.92
2018-12-21T11:52:18.806Z,10.92
2018-12-21T11:53:18.796Z,10.86
2018-12-21T11:54:18.804Z,11.02
2018-12-21T11:55:18.824Z,11.00
2018-12-21T11:56:18.830Z,10.99
2018-12-21T11:57:18.842Z,10.96
2018-12-21T11:58:19.512Z,11.02
2018-12-21T12:00:18.957Z,11.10
2018-12-21T12:01:18.888Z,11.09
2018-12-21T12:02:19.767Z,11.09
2018-12-21T12:03:18.913Z,11.06
2018-12-21T12:04:18.935Z,11.10
2018-12-21T12:05:19.022Z,11.10
2018-12-21T12:06:18.957Z,11.09
2018-12-21T12:07:18.963Z,11.22
2018-12-21T12:08:18.980Z,11.17
2018-12-21T12:09:18.995Z,11.19
2018-12-21T12:10:19.003Z,11.17
2018-12-21T12:11:19.017Z,11.19
2018-12-21T12:12:19.023Z,11.17
2018-12-21T12:13:19.035Z,11.24
2018-12-21T12:14:19.076Z,11.27
2018-12-21T12:15:19.061Z,11.33
2018-12-21T12:16:19.083Z,11.27
2018-12-21T12:17:19.089Z,11.32
2018-12-21T12:18:20.544Z,11.35
2018-12-21T12:19:19.112Z,11.27
2018-12-21T12:20:19.173Z,11.32
2018-12-21T12:21:19.142Z,11.43
2018-12-21T12:22:19.150Z,11.40
2018-12-21T12:23:19.164Z,11.37
2018-12-21T12:24:19.171Z,11.49
2018-12-21T12:25:19.194Z,11.52
2018-12-21T12:27:19.211Z,11.46
2018-12-21T12:28:19.225Z,11.57
2018-12-21T12:29:19.234Z,11.49
2018-12-21T12:30:19.262Z,11.55
2018-12-21T12:31:19.264Z,11.58
2018-12-21T12:32:19.283Z,11.64
2018-12-21T12:33:19.291Z,11.69
2018-12-21T12:34:19.300Z,11.67
2018-12-21T12:35:19.325Z,11.73
2018-12-21T12:36:19.326Z,11.70
2018-12-21T12:37:19.341Z,11.75
2018-12-21T12:38:19.367Z,11.75
2018-12-21T12:39:19.370Z,11.76
2018-12-21T12:40:19.375Z,11.75
2018-12-21T12:41:19.386Z,11.85
2018-12-21T12:42:19.408Z,11.94
2018-12-21T12:43:19.412Z,11.80
2018-12-21T12:44:19.425Z,11.88
2018-12-21T12:45:19.439Z,11.90
2018-12-21T12:46:19.450Z,11.96
2018-12-21T12:47:19.464Z,11.94
2018-12-21T12:48:19.476Z,11.98
2018-12-21T12:49:19.489Z,11.91
2018-12-21T12:50:19.503Z,11.98
2018-12-21T12:51:19.515Z,11.95
2018-12-21T12:52:19.525Z,12.05
2018-12-21T12:53:19.536Z,12.07
2018-12-21T12:54:19.556Z,12.09
2018-12-21T12:55:19.569Z,12.10
2018-12-21T12:56:19.579Z,12.07
2018-12-21T12:57:19.600Z,12.10
2018-12-21T12:58:19.611Z,12.23
2018-12-21T12:59:19.619Z,12.13
2018-12-21T13:00:19.629Z,12.24
2018-12-21T13:01:19.639Z,12.21
2018-12-21T13:02:19.689Z,12.19
2018-12-21T13:03:19.673Z,12.27
2018-12-21T13:04:19.675Z,12.29
2018-12-21T13:05:19.690Z,12.35
2018-12-21T13:06:19.704Z,12.21
2018-12-21T13:07:19.721Z,12.38
2018-12-21T13:08:19.733Z,12.32
2018-12-21T13:09:19.744Z,12.31
2018-12-21T13:10:19.758Z,12.38
2018-12-21T13:11:19.772Z,12.45
2018-12-21T13:12:19.785Z,12.45
2018-12-21T13:13:19.794Z,12.50
2018-12-21T13:14:19.806Z,12.45
2018-12-21T13:15:19.823Z,12.47
2018-12-21T13:16:19.832Z,12.53
2018-12-21T13:17:19.846Z,12.47
2018-12-21T13:18:19.866Z,12.52
2018-12-21T13:19:19.885Z,12.49